Time;durP1;ratioP1;P1;durP2;ratioP2;P2;SDS_P1;SDS_P2;PMS_P1;PMS_P2;Temp;Humidity;BMP_temperature;BMP_pressure;BME280_temperature;BME280_humidity;BME280_pressure;Samples;Min_cycle;Max_cycle;Signal;HPM_P1;HPM_P2
2023/10/14 00:01:12;;;;;;;6.10;2.45;;;22.30;64.80;;;;;;5084085;28;20031;-79
2023/10/14 00:03:43;;;;;;;5.53;2.58;;;22.40;65.00;;;;;;5084319;28;20008;-78
2023/10/14 00:06:13;;;;;;;4.07;2.15;;;22.50;66.40;;;;;;5086656;28;20334;-78
2023/10/14 00:08:58;;;;;;;5.97;2.40;;;22.60;66.80;;;;;;5070629;28;20054;-78
2023/10/14 00:11:27;;;;;;;2.65;2.25;;;22.60;66.90;;;;;;5089066;28;20023;-78
2023/10/14 00:13:53;;;;;;;7.73;2.83;;;22.60;67.00;;;;;;5088818;28;20016;-77
2023/10/14 00:18:59;;;;;;;8.63;3.33;;;21.90;76.20;;;;;;5089336;28;20185;-79
2023/10/14 00:21:28;;;;;;;12.18;3.17;;;20.60;83.20;;;;;;5089268;28;20020;-80
2023/10/14 00:23:57;;;;;;;6.75;2.50;;;19.60;91.10;;;;;;5085547;28;20044;-80
2023/10/14 00:26:24;;;;;;;4.47;3.25;;;18.90;97.00;;;;;;5111587;28;20036;-81
2023/10/14 00:31:40;;;;;;;6.50;2.63;;;18.00;99.90;;;;;;5112063;28;20016;-80
2023/10/14 00:34:07;;;;;;;5.82;4.07;;;17.70;99.90;;;;;;5111218;28;20028;-81
2023/10/14 00:36:37;;;;;;;4.85;3.15;;;17.50;99.90;;;;;;5111018;28;20012;-80
2023/10/14 00:39:12;;;;;;;3.67;3.30;;;17.40;99.90;;;;;;5109799;28;20047;-81
2023/10/14 00:41:50;;;;;;;6.40;3.72;;;17.30;99.90;;;;;;5111192;28;20023;-82
2023/10/14 00:44:17;;;;;;;4.90;3.35;;;17.30;99.90;;;;;;5112133;28;20307;-81
2023/10/14 00:46:48;;;;;;;5.55;2.95;;;17.20;99.90;;;;;;5109643;28;20069;-78
2023/10/14 00:49:15;;;;;;;4.05;3.08;;;17.10;99.90;;;;;;5109395;28;20019;-78
2023/10/14 00:51:44;;;;;;;3.55;3.03;;;17.00;99.90;;;;;;5107947;28;20022;-78
2023/10/14 00:54:12;;;;;;;7.82;2.65;;;17.10;99.90;;;;;;5108336;28;20031;-78
2023/10/14 00:56:42;;;;;;;2.65;2.28;;;17.00;99.90;;;;;;5107766;28;20388;-78
2023/10/14 00:59:09;;;;;;;5.68;3.45;;;17.00;99.90;;;;;;5109270;28;20043;-78
2023/10/14 01:04:21;;;;;;;3.90;2.50;;;17.10;99.90;;;;;;5109071;28;20020;-79
2023/10/14 01:06:55;;;;;;;3.40;2.47;;;17.10;99.90;;;;;;5107710;28;20065;-77
2023/10/14 01:09:22;;;;;;;10.80;3.10;;;17.10;99.90;;;;;;5107474;28;20020;-76
2023/10/14 01:11:48;;;;;;;4.95;3.65;;;17.10;99.90;;;;;;5107482;28;20207;-77
2023/10/14 01:14:17;;;;;;;4.88;3.60;;;17.10;99.90;;;;;;5109405;28;20047;-77
2023/10/14 01:16:46;;;;;;;5.40;2.40;;;17.30;99.90;;;;;;5107596;28;20015;-77
2023/10/14 01:19:15;;;;;;;3.20;2.47;;;17.30;99.90;;;;;;5107875;28;20023;-77
2023/10/14 01:21:43;;;;;;;3.28;2.78;;;17.50;99.90;;;;;;5108069;28;20020;-78
2023/10/14 01:24:15;;;;;;;3.80;3.22;;;17.60;99.90;;;;;;5107570;28;20067;-78
2023/10/14 01:27:00;;;;;;;6.07;3.28;;;17.70;99.90;;;;;;5107786;28;20040;-78
2023/10/14 01:29:30;;;;;;;4.88;2.83;;;17.90;99.90;;;;;;5108989;28;20022;-77
2023/10/14 01:32:10;;;;;;;5.88;2.58;;;18.20;99.90;;;;;;5109676;28;20066;-78
2023/10/14 01:34:42;;;;;;;6.80;2.78;;;18.30;99.90;;;;;;5108173;28;20016;-78
2023/10/14 01:37:19;;;;;;;3.28;2.63;;;18.40;99.90;;;;;;5105569;28;20126;-77
2023/10/14 01:39:49;;;;;;;12.55;3.35;;;18.60;99.90;;;;;;5106893;28;20066;-77
2023/10/14 01:42:17;;;;;;;6.57;3.28;;;18.60;99.90;;;;;;5106592;28;20020;-77
2023/10/14 01:44:43;;;;;;;12.48;2.80;;;18.70;99.90;;;;;;5106955;28;20023;-78
2023/10/14 01:47:08;;;;;;;3.08;2.30;;;18.90;99.90;;;;;;5105432;28;20031;-78
2023/10/14 01:49:36;;;;;;;7.07;2.83;;;18.90;99.90;;;;;;5106548;28;20016;-77
2023/10/14 01:52:06;;;;;;;4.88;3.30;;;18.90;99.90;;;;;;5105388;28;20031;-78
2023/10/14 01:54:32;;;;;;;3.80;2.67;;;18.80;99.90;;;;;;5105250;28;20077;-78
2023/10/14 01:56:59;;;;;;;7.07;2.55;;;18.80;99.90;;;;;;5105216;28;20327;-78
2023/10/14 01:59:27;;;;;;;5.47;2.88;;;18.80;99.90;;;;;;5106009;28;20016;-77
2023/10/14 02:01:57;;;;;;;8.95;3.20;;;18.80;99.90;;;;;;5105182;28;20092;-77
2023/10/14 02:04:23;;;;;;;5.63;3.13;;;18.80;99.90;;;;;;5106352;28;20012;-79
2023/10/14 02:07:02;;;;;;;6.82;2.53;;;18.80;99.90;;;;;;5106187;28;20028;-78
2023/10/14 02:09:29;;;;;;;3.95;3.10;;;18.70;99.90;;;;;;5104935;28;20030;-79
2023/10/14 02:11:56;;;;;;;6.07;2.63;;;18.70;99.90;;;;;;5106564;28;20406;-77
2023/10/14 02:14:22;;;;;;;14.75;2.78;;;18.70;99.90;;;;;;5106063;28;20312;-78
2023/10/14 02:16:49;;;;;;;4.40;3.05;;;18.70;99.90;;;;;;5106313;28;20324;-78
2023/10/14 02:19:18;;;;;;;6.30;2.75;;;18.70;99.90;;;;;;5106202;28;20027;-78
2023/10/14 02:21:44;;;;;;;;;;;18.50;99.90;;;;;;5105530;28;20027;-79
2023/10/14 02:24:10;;;;;;;3.63;3.03;;;18.40;99.90;;;;;;5095681;28;19916;-78
2023/10/14 02:26:38;;;;;;;3.13;2.83;;;18.20;99.90;;;;;;5067801;28;20051;-79
2023/10/14 02:29:08;;;;;;;10.98;2.78;;;18.00;99.90;;;;;;5085333;28;20048;-78
2023/10/14 02:31:36;;;;;;;5.20;2.92;;;17.70;99.90;;;;;;5085552;28;20023;-79
2023/10/14 02:34:06;;;;;;;3.25;2.60;;;17.50;99.90;;;;;;5086077;28;20012;-79
2023/10/14 02:36:41;;;;;;;4.95;3.00;;;17.30;99.90;;;;;;5086496;28;20038;-77
2023/10/14 02:39:17;;;;;;;8.18;3.90;;;17.20;99.90;;;;;;5086451;28;20024;-78
2023/10/14 02:41:45;;;;;;;10.38;3.35;;;17.10;99.90;;;;;;5068117;28;20028;-77
2023/10/14 02:46:42;;;;;;;9.32;3.20;;;17.00;99.90;;;;;;5086185;28;20036;-78
2023/10/14 02:49:18;;;;;;;5.88;3.40;;;17.00;99.90;;;;;;5067920;28;20017;-78
2023/10/14 02:51:45;;;;;;;7.47;3.53;;;17.00;99.90;;;;;;5085874;28;20016;-78
2023/10/14 02:54:26;;;;;;;8.20;4.53;;;17.10;99.90;;;;;;5085824;28;20301;-78
2023/10/14 02:59:29;;;;;;;4.90;3.35;;;17.10;99.90;;;;;;5086223;28;20020;-78
2023/10/14 03:05:08;;;;;;;5.38;3.05;;;17.00;99.90;;;;;;5085944;28;20015;-78
2023/10/14 03:07:31;;;;;;;4.57;3.42;;;17.00;99.90;;;;;;5085121;28;20040;-77
2023/10/14 03:10:20;;;;;;;5.85;3.05;;;17.00;99.90;;;;;;5067006;28;20255;-78
2023/10/14 03:12:50;;;;;;;5.13;3.53;;;17.00;99.90;;;;;;5067587;28;20339;-78
2023/10/14 03:15:19;;;;;;;3.92;3.10;;;17.00;99.90;;;;;;5067465;28;20024;-77
2023/10/14 03:17:58;;;;;;;5.05;3.45;;;17.00;99.90;;;;;;5085803;28;20038;-77
2023/10/14 03:22:54;;;;;;;5.18;3.20;;;17.20;99.90;;;;;;5084520;28;20027;-78
2023/10/14 03:25:23;;;;;;;5.40;3.30;;;17.20;99.90;;;;;;5103491;28;20054;-77
2023/10/14 03:28:00;;;;;;;6.07;3.67;;;17.30;99.90;;;;;;5105273;28;20040;-78
2023/10/14 03:30:31;;;;;;;5.22;2.78;;;17.30;99.90;;;;;;5104041;28;20065;-77
2023/10/14 03:32:56;;;;;;;3.38;2.70;;;17.30;99.90;;;;;;5105784;28;20027;-77
2023/10/14 03:35:24;;;;;;;6.90;2.42;;;17.40;99.90;;;;;;5104787;28;20012;-77
2023/10/14 03:37:53;;;;;;;6.95;3.67;;;17.40;99.90;;;;;;5106106;28;20098;-78
2023/10/14 03:43:09;;;;;;;7.53;3.20;;;17.50;99.90;;;;;;5105854;28;20151;-77
2023/10/14 03:45:47;;;;;;;6.25;2.60;;;17.50;99.90;;;;;;5105256;28;20031;-78
2023/10/14 03:48:13;;;;;;;7.45;3.40;;;17.50;99.90;;;;;;5105514;28;20026;-78
2023/10/14 03:50:39;;;;;;;4.65;2.65;;;17.50;99.90;;;;;;5104242;28;20016;-78
2023/10/14 03:53:08;;;;;;;6.78;2.78;;;17.50;99.90;;;;;;5105526;28;20024;-77
2023/10/14 03:55:33;;;;;;;6.88;2.53;;;17.50;99.90;;;;;;5106044;28;20008;-77
2023/10/14 03:58:05;;;;;;;6.05;3.17;;;17.50;99.90;;;;;;5104867;28;20024;-77
2023/10/14 04:00:37;;;;;;;5.40;2.85;;;17.50;99.90;;;;;;5105936;28;20323;-77
2023/10/14 04:03:13;;;;;;;6.63;2.50;;;17.40;99.90;;;;;;5105586;28;20039;-77
2023/10/14 04:05:53;;;;;;;12.68;2.90;;;17.20;99.90;;;;;;5104684;28;20327;-77
2023/10/14 04:08:30;;;;;;;4.28;2.45;;;17.10;99.90;;;;;;5106162;28;20051;-77
2023/10/14 04:11:10;;;;;;;9.23;3.17;;;17.10;99.90;;;;;;5106337;28;20102;-77
2023/10/14 04:13:40;;;;;;;2.83;2.22;;;17.10;99.90;;;;;;5105087;28;20024;-76
2023/10/14 04:16:07;;;;;;;7.35;3.42;;;17.20;99.90;;;;;;5104979;28;20015;-77
2023/10/14 04:18:33;;;;;;;8.35;3.40;;;17.20;99.90;;;;;;5105037;28;20016;-77
2023/10/14 04:21:15;;;;;;;5.68;3.75;;;17.30;99.90;;;;;;5105015;28;20323;-77
2023/10/14 04:24:00;;;;;;;3.30;2.38;;;17.30;99.90;;;;;;5099845;28;20036;-77
2023/10/14 04:26:31;;;;;;;7.22;2.80;;;17.30;99.90;;;;;;5085814;28;20021;-77
2023/10/14 04:28:58;;;;;;;10.52;2.95;;;17.40;99.90;;;;;;5068397;28;20058;-76
2023/10/14 04:31:39;;;;;;;7.13;3.20;;;17.40;99.90;;;;;;5085840;28;20100;-77
2023/10/14 04:34:10;;;;;;;3.20;1.95;;;17.60;99.90;;;;;;5083881;28;20048;-77
2023/10/14 04:39:13;;;;;;;4.68;2.90;;;17.60;99.90;;;;;;5082944;28;20019;-77
2023/10/14 04:41:49;;;;;;;3.90;2.53;;;17.60;99.90;;;;;;5065922;28;20028;-77
2023/10/14 04:44:14;;;;;;;4.57;2.53;;;17.70;99.90;;;;;;5065811;28;20027;-77
2023/10/14 04:46:54;;;;;;;3.63;2.60;;;17.70;99.90;;;;;;5083474;28;20220;-77
2023/10/14 04:49:35;;;;;;;8.45;3.45;;;17.70;99.90;;;;;;5083755;28;20036;-77
2023/10/14 04:52:04;;;;;;;5.85;2.92;;;17.70;99.90;;;;;;5084952;28;20023;-77
2023/10/14 04:54:34;;;;;;;8.45;2.63;;;17.80;99.90;;;;;;5087173;28;20016;-77
2023/10/14 04:57:12;;;;;;;5.75;3.53;;;17.80;99.90;;;;;;5087462;28;20023;-77
2023/10/14 04:59:37;;;;;;;6.53;3.10;;;17.80;99.90;;;;;;5087141;28;20020;-77
2023/10/14 05:02:03;;;;;;;6.43;3.13;;;17.80;99.90;;;;;;5087465;28;20044;-77
2023/10/14 05:04:30;;;;;;;7.57;3.10;;;17.90;99.90;;;;;;5069586;28;20189;-77
2023/10/14 05:07:03;;;;;;;4.40;2.88;;;17.90;99.90;;;;;;5069506;28;20036;-77
2023/10/14 05:09:30;;;;;;;7.78;3.10;;;17.90;99.90;;;;;;5068405;28;20028;-77
2023/10/14 05:11:57;;;;;;;11.35;2.90;;;18.00;99.90;;;;;;5069271;28;20089;-77
2023/10/14 05:14:34;;;;;;;3.33;2.40;;;17.90;99.90;;;;;;5069325;28;20051;-77
2023/10/14 05:19:43;;;;;;;6.15;3.10;;;17.90;99.90;;;;;;5087577;28;20025;-77
2023/10/14 05:22:18;;;;;;;5.05;2.60;;;17.90;99.90;;;;;;5069051;28;20027;-78
2023/10/14 05:25:08;;;;;;;2.92;2.60;;;17.90;99.90;;;;;;5086820;28;20244;-77
2023/10/14 05:27:46;;;;;;;2.80;2.28;;;17.90;99.90;;;;;;5068922;28;20320;-78
2023/10/14 05:30:15;;;;;;;11.23;3.38;;;17.80;99.90;;;;;;5086614;28;20096;-77
2023/10/14 05:32:43;;;;;;;5.82;2.85;;;17.80;99.90;;;;;;5068768;28;20020;-77
2023/10/14 05:35:10;;;;;;;5.07;2.97;;;17.80;99.90;;;;;;5086883;28;20017;-77
2023/10/14 05:37:37;;;;;;;12.68;2.83;;;17.90;99.90;;;;;;5069207;28;20012;-78
2023/10/14 05:40:04;;;;;;;4.15;2.53;;;18.00;99.90;;;;;;5068757;28;20024;-77
2023/10/14 05:42:29;;;;;;;10.00;3.40;;;18.00;99.90;;;;;;5069002;28;20023;-77
2023/10/14 05:45:01;;;;;;;4.28;3.03;;;18.00;99.90;;;;;;5068859;28;20017;-77
2023/10/14 05:47:27;;;;;;;6.53;3.30;;;18.10;99.90;;;;;;5068661;28;20225;-77
2023/10/14 05:49:53;;;;;;;6.93;2.65;;;18.10;99.90;;;;;;5086682;28;20009;-77
2023/10/14 05:52:24;;;;;;;19.15;3.92;;;18.10;99.90;;;;;;5068888;28;20040;-78
2023/10/14 05:54:50;;;;;;;9.48;3.40;;;18.10;99.90;;;;;;5086607;28;20020;-77
2023/10/14 05:57:17;;;;;;;3.35;2.20;;;18.20;99.90;;;;;;5069324;28;20020;-77
2023/10/14 05:59:43;;;;;;;8.48;2.92;;;18.20;99.90;;;;;;5068672;28;20383;-78
2023/10/14 06:02:13;;;;;;;7.65;2.55;;;18.20;99.90;;;;;;5068282;28;20029;-78
2023/10/14 06:04:39;;;;;;;7.50;2.35;;;18.20;99.90;;;;;;5066412;28;20016;-77
2023/10/14 06:07:09;;;;;;;6.53;2.85;;;18.20;99.90;;;;;;5067920;28;20103;-78
2023/10/14 06:09:36;;;;;;;4.57;3.50;;;18.20;99.90;;;;;;5085939;28;20020;-77
2023/10/14 06:12:06;;;;;;;5.10;2.97;;;18.20;99.90;;;;;;5068772;28;20016;-77
2023/10/14 06:14:32;;;;;;;6.38;3.00;;;18.20;99.90;;;;;;5069146;28;20023;-78
2023/10/14 06:16:59;;;;;;;4.53;2.53;;;18.30;99.90;;;;;;5086897;28;20088;-77
2023/10/14 06:19:25;;;;;;;6.43;3.10;;;18.40;99.90;;;;;;5068516;28;20253;-77
2023/10/14 06:21:50;;;;;;;13.10;3.78;;;18.40;99.90;;;;;;5086252;28;20069;-77
2023/10/14 06:24:16;;;;;;;6.88;2.40;;;18.30;99.90;;;;;;5086006;28;20082;-77
2023/10/14 06:26:42;;;;;;;4.55;2.50;;;18.40;99.90;;;;;;5086170;28;20028;-78
2023/10/14 06:29:09;;;;;;;8.85;3.30;;;18.40;99.90;;;;;;5086422;28;20012;-77
2023/10/14 06:31:37;;;;;;;3.50;3.00;;;18.40;99.90;;;;;;5087017;28;20040;-77
2023/10/14 06:34:08;;;;;;;5.68;2.47;;;18.50;99.90;;;;;;5068768;28;20025;-77
2023/10/14 06:36:35;;;;;;;8.90;3.65;;;18.50;99.90;;;;;;5068093;28;20031;-78
2023/10/14 06:39:13;;;;;;;9.48;3.53;;;18.60;99.90;;;;;;5068516;28;20021;-77
2023/10/14 06:41:45;;;;;;;9.63;3.47;;;18.60;99.90;;;;;;5068259;28;20024;-78
2023/10/14 06:44:15;;;;;;;9.40;3.15;;;18.60;99.90;;;;;;5068654;28;20016;-77
2023/10/14 06:46:46;;;;;;;;;;;18.60;99.90;;;;;;5068901;28;20028;-77
2023/10/14 06:49:16;;;;;;;9.18;4.03;;;18.70;99.90;;;;;;5068079;28;19907;-77
2023/10/14 06:51:45;;;;;;;8.18;3.38;;;18.70;99.90;;;;;;5089190;28;20016;-79
2023/10/14 06:54:13;;;;;;;7.10;3.45;;;18.80;99.90;;;;;;5079750;28;20056;-80
2023/10/14 06:56:40;;;;;;;4.70;2.63;;;18.70;99.90;;;;;;5077395;28;20216;-80
2023/10/14 06:59:06;;;;;;;7.03;3.13;;;18.70;99.90;;;;;;5076627;28;20027;-80
2023/10/14 07:01:36;;;;;;;4.22;3.05;;;18.70;99.90;;;;;;5089391;28;20017;-81
2023/10/14 07:04:04;;;;;;;4.65;3.28;;;18.70;99.90;;;;;;5076044;28;20020;-81
2023/10/14 07:06:29;;;;;;;4.93;2.40;;;18.70;99.90;;;;;;5087708;28;20042;-78
2023/10/14 07:08:56;;;;;;;9.15;3.28;;;18.70;99.90;;;;;;5068798;28;20315;-78
2023/10/14 07:11:22;;;;;;;7.20;3.05;;;18.60;99.90;;;;;;5068933;28;20118;-78
2023/10/14 07:13:47;;;;;;;8.52;3.45;;;18.60;99.90;;;;;;5086329;28;20016;-78
2023/10/14 07:16:13;;;;;;;7.13;2.67;;;18.70;99.90;;;;;;5086037;28;20016;-77
2023/10/14 07:18:40;;;;;;;5.53;2.38;;;18.80;99.90;;;;;;5086403;28;20020;-78
2023/10/14 07:21:12;;;;;;;10.27;3.03;;;18.90;99.90;;;;;;5079629;28;20024;-80
2023/10/14 07:23:39;;;;;;;6.07;2.63;;;19.00;99.90;;;;;;5096366;28;20045;-82
2023/10/14 07:26:12;;;;;;;4.82;3.03;;;19.00;99.90;;;;;;5096770;28;20111;-80
2023/10/14 07:28:46;;;;;;;4.38;2.85;;;19.10;99.90;;;;;;5093768;28;20029;-79
2023/10/14 07:31:12;;;;;;;5.43;2.90;;;19.30;99.90;;;;;;5077454;28;20048;-84
2023/10/14 07:33:39;;;;;;;4.60;2.92;;;19.40;99.90;;;;;;5084968;28;20020;-80
2023/10/14 07:36:11;;;;;;;6.13;2.47;;;19.50;99.90;;;;;;5074113;28;20028;-79
2023/10/14 07:38:37;;;;;;;5.50;2.63;;;19.70;99.90;;;;;;5083281;28;20021;-78
2023/10/14 07:41:10;;;;;;;7.95;4.32;;;19.80;99.90;;;;;;5069571;28;20209;-78
2023/10/14 07:43:36;;;;;;;8.32;2.53;;;19.90;99.90;;;;;;5088657;28;20060;-79
2023/10/14 07:46:03;;;;;;;6.30;2.55;;;20.00;99.90;;;;;;5072144;28;20075;-78
2023/10/14 07:48:28;;;;;;;5.13;2.28;;;19.90;99.90;;;;;;5085401;28;20462;-78
2023/10/14 07:50:58;;;;;;;8.55;2.58;;;19.80;99.90;;;;;;5071340;28;20028;-78
2023/10/14 07:53:25;;;;;;;4.28;2.08;;;19.70;99.90;;;;;;5085333;28;20083;-78
2023/10/14 07:55:53;;;;;;;5.88;2.40;;;19.60;99.90;;;;;;5066683;28;20039;-79
2023/10/14 07:58:23;;;;;;;13.38;2.65;;;19.70;99.90;;;;;;5087813;28;20080;-79
2023/10/14 08:00:50;;;;;;;9.05;2.95;;;19.70;99.90;;;;;;5068063;28;20012;-79
2023/10/14 08:03:24;;;;;;;7.72;2.85;;;19.70;99.90;;;;;;5064792;28;20028;-78
2023/10/14 08:05:53;;;;;;;8.63;2.35;;;19.70;99.90;;;;;;5067302;28;20024;-78
2023/10/14 08:08:21;;;;;;;2.70;2.00;;;19.60;99.90;;;;;;5064219;28;20028;-79
2023/10/14 08:10:49;;;;;;;6.70;3.70;;;19.50;99.90;;;;;;5064987;28;20186;-79
2023/10/14 08:13:21;;;;;;;6.30;2.60;;;19.30;99.90;;;;;;5084003;28;20321;-80
2023/10/14 08:15:50;;;;;;;3.83;2.22;;;19.10;99.90;;;;;;5068791;28;20051;-79
2023/10/14 08:18:25;;;;;;;3.88;2.00;;;19.00;99.90;;;;;;5066355;28;20324;-78
2023/10/14 08:20:55;;;;;;;5.40;2.40;;;19.10;99.90;;;;;;5065782;28;20366;-78
2023/10/14 08:23:21;;;;;;;5.22;2.08;;;19.10;99.90;;;;;;5083506;28;20174;-78
2023/10/14 08:25:53;;;;;;;4.35;2.13;;;19.10;99.90;;;;;;5057873;28;20076;-78
2023/10/14 08:28:28;;;;;;;5.70;2.22;;;19.10;99.90;;;;;;5082527;28;20051;-78
2023/10/14 08:30:57;;;;;;;6.47;2.00;;;19.10;99.90;;;;;;5062532;28;20044;-79
2023/10/14 08:33:24;;;;;;;2.75;1.60;;;19.10;99.90;;;;;;5081623;28;20024;-79
2023/10/14 08:35:55;;;;;;;3.53;2.13;;;19.20;99.90;;;;;;5062370;28;20024;-79
2023/10/14 08:38:30;;;;;;;7.00;2.33;;;19.30;99.90;;;;;;5049647;28;20032;-81
2023/10/14 08:41:00;;;;;;;4.68;1.85;;;19.40;99.90;;;;;;5079508;28;20099;-78
2023/10/14 08:43:26;;;;;;;7.78;2.55;;;19.50;99.90;;;;;;5062937;28;20066;-77
2023/10/14 08:45:56;;;;;;;5.15;1.95;;;19.40;99.90;;;;;;5079371;28;20027;-79
2023/10/14 08:48:24;;;;;;;;;;;19.50;99.90;;;;;;5079152;28;20020;-78
2023/10/14 08:50:52;;;;;;;7.63;1.73;;;19.50;99.90;;;;;;5077773;28;19911;-79
2023/10/14 08:53:21;;;;;;;3.15;2.08;;;19.60;99.90;;;;;;5081628;28;20033;-79
2023/10/14 08:55:47;;;;;;;;;;;19.60;99.90;;;;;;5063267;28;20059;-78
2023/10/14 08:58:13;;;;;;;4.65;1.77;;;19.50;99.90;;;;;;5060290;28;19997;-79
2023/10/14 09:00:40;;;;;;;2.00;1.80;;;19.50;99.90;;;;;;5079004;28;20024;-80
2023/10/14 09:03:07;;;;;;;6.60;1.73;;;19.40;99.90;;;;;;5078997;28;20024;-78
2023/10/14 09:05:40;;;;;;;7.72;2.05;;;19.30;99.90;;;;;;5076557;28;20040;-77
2023/10/14 09:08:16;;;;;;;3.42;1.98;;;19.30;99.90;;;;;;5076153;28;20491;-77
2023/10/14 09:10:44;;;;;;;3.70;2.13;;;19.20;99.90;;;;;;5076260;28;20021;-77
2023/10/14 09:13:12;;;;;;;4.57;1.88;;;19.10;99.90;;;;;;5076334;28;20032;-77
2023/10/14 09:15:40;;;;;;;4.15;1.98;;;19.10;99.90;;;;;;5076178;28;20017;-77
2023/10/14 09:18:11;;;;;;;2.58;1.30;;;19.10;99.90;;;;;;5058480;28;20107;-78
2023/10/14 09:20:38;;;;;;;2.28;1.70;;;19.30;99.90;;;;;;5059635;28;20125;-76
2023/10/14 09:23:11;;;;;;;3.03;1.27;;;19.40;99.90;;;;;;5060671;28;20028;-78
2023/10/14 09:26:01;;;;;;;3.78;1.45;;;19.50;99.90;;;;;;5076811;28;20427;-78
2023/10/14 09:28:34;;;;;;;2.15;1.20;;;19.60;99.90;;;;;;5077379;28;20108;-78
2023/10/14 09:31:02;;;;;;;1.65;1.42;;;19.80;99.90;;;;;;5076800;28;20450;-77
2023/10/14 09:33:32;;;;;;;5.18;1.45;;;19.90;99.90;;;;;;5065638;28;20024;-77
2023/10/14 09:36:02;;;;;;;2.45;1.30;;;20.00;99.90;;;;;;5077312;28;20420;-78
2023/10/14 09:38:31;;;;;;;6.53;1.33;;;20.10;99.90;;;;;;5079824;28;20488;-78
2023/10/14 09:40:59;;;;;;;1.52;1.17;;;20.00;99.90;;;;;;5083711;28;20027;-77
2023/10/14 09:43:25;;;;;;;2.45;1.60;;;20.00;99.90;;;;;;5079195;28;20025;-78
2023/10/14 09:45:56;;;;;;;1.98;1.35;;;20.00;99.90;;;;;;5060540;28;20091;-77
2023/10/14 09:48:29;;;;;;;6.78;1.63;;;19.80;99.90;;;;;;5082669;28;20031;-77
2023/10/14 09:50:56;;;;;;;3.03;1.67;;;19.70;99.90;;;;;;5082825;28;20021;-78
2023/10/14 09:53:26;;;;;;;3.72;1.17;;;19.60;99.90;;;;;;5065688;28;20204;-77
2023/10/14 09:55:56;;;;;;;2.85;1.00;;;19.50;99.90;;;;;;5068837;28;20044;-77
2023/10/14 09:58:25;;;;;;;2.05;1.20;;;19.50;99.90;;;;;;5084077;28;20024;-77
2023/10/14 10:00:51;;;;;;;0.80;0.80;;;19.90;99.90;;;;;;5081375;28;20400;-77
2023/10/14 10:03:19;;;;;;;5.00;1.48;;;20.20;99.90;;;;;;5059240;28;20025;-78
2023/10/14 10:06:14;;;;;;;2.10;1.17;;;20.40;99.90;;;;;;5062253;28;20204;-75
2023/10/14 10:08:47;;;;;;;3.00;1.13;;;20.70;99.90;;;;;;5060606;28;20050;-76
2023/10/14 10:11:14;;;;;;;5.00;1.50;;;20.50;99.90;;;;;;5079472;28;20017;-76
2023/10/14 10:13:40;;;;;;;3.35;1.10;;;20.60;99.90;;;;;;5077522;28;20051;-76
2023/10/14 10:16:06;;;;;;;4.53;1.30;;;20.70;99.90;;;;;;5063349;28;20032;-76
2023/10/14 10:18:51;;;;;;;2.08;1.50;;;20.90;99.90;;;;;;5060132;28;20025;-75
2023/10/14 10:21:18;;;;;;;3.25;1.38;;;20.90;99.90;;;;;;5067099;28;20020;-77
2023/10/14 10:23:48;;;;;;;4.65;1.83;;;20.90;99.90;;;;;;5085972;28;20055;-77
2023/10/14 10:26:17;;;;;;;4.68;1.23;;;20.90;99.90;;;;;;5066043;28;20028;-77
2023/10/14 10:28:45;;;;;;;1.98;1.13;;;20.70;99.90;;;;;;5082427;28;20403;-76
2023/10/14 10:31:16;;;;;;;1.90;1.23;;;20.40;99.90;;;;;;5058645;28;20328;-77
2023/10/14 10:34:01;;;;;;;4.63;1.35;;;20.40;99.90;;;;;;5056354;28;20052;-78
2023/10/14 10:36:31;;;;;;;3.10;1.33;;;20.70;99.90;;;;;;5078560;28;20050;-78
2023/10/14 10:39:24;;;;;;;3.33;1.05;;;20.80;99.90;;;;;;5056800;28;20024;-76
2023/10/14 10:41:53;;;;;;;4.05;1.15;;;20.60;99.90;;;;;;5072938;28;20029;-79
2023/10/14 10:44:20;;;;;;;2.97;1.13;;;20.40;99.90;;;;;;5077561;28;20017;-81
2023/10/14 10:46:50;;;;;;;3.90;1.10;;;20.30;99.90;;;;;;5069771;28;20084;-81
2023/10/14 10:49:59;;;;;;;4.07;1.17;;;20.30;99.90;;;;;;5083317;28;20012;-78
2023/10/14 10:52:28;;;;;;;6.15;1.38;;;20.30;99.90;;;;;;5068783;28;20267;-81
2023/10/14 10:54:56;;;;;;;5.45;2.25;;;20.60;99.90;;;;;;5078521;28;20069;-76
2023/10/14 10:57:22;;;;;;;3.50;1.08;;;20.90;99.90;;;;;;5073784;28;20086;-75
2023/10/14 10:59:47;;;;;;;1.13;0.93;;;21.10;99.90;;;;;;5076484;28;20531;-76
2023/10/14 11:02:15;;;;;;;2.00;1.70;;;21.10;99.90;;;;;;5073900;28;20103;-74
2023/10/14 11:04:43;;;;;;;1.67;1.35;;;21.40;99.90;;;;;;5073914;28;20039;-79
2023/10/14 11:07:10;;;;;;;2.58;1.00;;;21.60;99.90;;;;;;5074397;28;20043;-80
2023/10/14 11:09:39;;;;;;;2.53;1.20;;;21.60;99.90;;;;;;5074835;28;20035;-81
2023/10/14 11:12:05;;;;;;;6.57;1.37;;;21.50;99.90;;;;;;5074692;28;20066;-80
2023/10/14 11:14:31;;;;;;;2.97;1.27;;;21.50;99.90;;;;;;5074328;28;20032;-78
2023/10/14 11:16:57;;;;;;;2.38;1.05;;;21.40;99.90;;;;;;5077203;28;20031;-79
2023/10/14 11:19:30;;;;;;;2.67;0.80;;;21.20;99.90;;;;;;5080414;28;20104;-79
2023/10/14 11:21:58;;;;;;;1.67;1.58;;;21.20;99.90;;;;;;5083298;28;20490;-78
2023/10/14 11:24:25;;;;;;;1.10;0.63;;;21.10;99.90;;;;;;5074319;28;20040;-80
2023/10/14 11:26:51;;;;;;;3.17;0.75;;;21.00;99.90;;;;;;5074249;28;20032;-79
2023/10/14 11:29:20;;;;;;;0.60;0.60;;;20.70;99.90;;;;;;5077980;28;20040;-81
2023/10/14 11:31:46;;;;;;;1.58;0.80;;;20.40;99.90;;;;;;5075262;28;20103;-79
2023/10/14 11:34:12;;;;;;;1.10;0.60;;;19.90;99.90;;;;;;5077265;28;20066;-76
2023/10/14 11:36:42;;;;;;;0.60;0.60;;;19.50;99.90;;;;;;5082838;28;20032;-80
2023/10/14 11:39:13;;;;;;;1.85;0.40;;;19.10;99.90;;;;;;5080874;28;20017;-81
2023/10/14 11:41:40;;;;;;;0.22;0.13;;;18.40;99.90;;;;;;5078372;28;20179;-81
2023/10/14 11:44:06;;;;;;;0.77;0.30;;;17.80;99.90;;;;;;5074838;28;20020;-80
2023/10/14 11:46:38;;;;;;;0.20;0.20;;;17.50;99.90;;;;;;5075711;28;20035;-78
2023/10/14 11:49:09;;;;;;;0.00;0.00;;;17.10;99.90;;;;;;5058124;28;20557;-79
2023/10/14 11:51:39;;;;;;;0.28;0.28;;;16.90;99.90;;;;;;5082753;28;20020;-77
2023/10/14 11:54:07;;;;;;;0.10;0.10;;;16.70;99.90;;;;;;5084079;28;20035;-78
2023/10/14 11:56:33;;;;;;;0.15;0.10;;;16.60;99.90;;;;;;5084118;28;20052;-77
2023/10/14 11:59:00;;;;;;;0.10;0.10;;;16.60;99.90;;;;;;5084444;28;20200;-77
2023/10/14 12:01:28;;;;;;;0.00;0.00;;;16.70;99.90;;;;;;5083913;28;20025;-78
2023/10/14 12:03:54;;;;;;;0.00;0.00;;;16.60;99.90;;;;;;5084243;28;20066;-79
2023/10/14 12:06:20;;;;;;;0.00;0.00;;;16.30;99.90;;;;;;5083622;28;20036;-78
2023/10/14 12:08:48;;;;;;;0.10;0.10;;;15.90;99.90;;;;;;5083781;28;20013;-79
2023/10/14 12:11:14;;;;;;;0.30;0.10;;;15.70;99.90;;;;;;5084120;28;20036;-79
2023/10/14 12:13:41;;;;;;;0.00;0.00;;;15.40;99.90;;;;;;5085723;28;20425;-80
2023/10/14 12:16:07;;;;;;;1.17;0.10;;;15.10;99.90;;;;;;5089209;28;20492;-75
2023/10/14 12:18:36;;;;;;;0.00;0.00;;;14.70;99.90;;;;;;5068218;28;20029;-82
2023/10/14 12:21:04;;;;;;;0.10;0.10;;;14.40;99.90;;;;;;5089120;28;20084;-81
2023/10/14 12:23:31;;;;;;;0.00;0.00;;;14.20;99.90;;;;;;5090867;28;20291;-80
2023/10/14 12:25:58;;;;;;;0.00;0.00;;;14.30;99.90;;;;;;5091280;28;20035;-82
2023/10/14 12:28:30;;;;;;;0.00;0.00;;;14.20;99.90;;;;;;5093151;28;20016;-78
2023/10/14 12:30:59;;;;;;;0.20;0.00;;;14.30;99.90;;;;;;5088707;28;20027;-79
2023/10/14 12:33:31;;;;;;;0.20;0.20;;;14.30;99.90;;;;;;5090112;28;20073;-78
2023/10/14 12:36:06;;;;;;;0.28;0.10;;;14.40;99.90;;;;;;5093267;28;20016;-79
2023/10/14 12:38:32;;;;;;;0.10;0.10;;;14.60;99.90;;;;;;5083192;28;20347;-74
2023/10/14 12:41:01;;;;;;;0.00;0.00;;;14.50;99.90;;;;;;5071539;28;20024;-78
2023/10/14 12:43:28;;;;;;;0.28;0.20;;;14.20;99.90;;;;;;5094846;28;20031;-77
2023/10/14 12:46:19;;;;;;;0.00;0.00;;;14.10;99.90;;;;;;5078818;28;20043;-80
2023/10/14 12:48:46;;;;;;;0.00;0.00;;;13.90;99.90;;;;;;5091185;28;20012;-77
2023/10/14 12:51:17;;;;;;;0.20;0.20;;;13.80;99.90;;;;;;5079681;28;20009;-77
2023/10/14 12:53:47;;;;;;;0.10;0.10;;;13.80;99.90;;;;;;5079280;28;20020;-76
2023/10/14 12:56:20;;;;;;;0.30;0.30;;;13.80;99.90;;;;;;5061113;28;20029;-76
2023/10/14 12:58:48;;;;;;;0.00;0.00;;;13.80;99.90;;;;;;5077121;28;20024;-75
2023/10/14 13:01:17;;;;;;;0.10;0.10;;;13.70;99.90;;;;;;5077190;28;20044;-75
2023/10/14 13:03:51;;;;;;;0.10;0.10;;;13.70;99.90;;;;;;5076655;28;20016;-77
2023/10/14 13:06:23;;;;;;;0.10;0.10;;;13.70;99.90;;;;;;5064119;28;20355;-76
2023/10/14 13:09:01;;;;;;;0.10;0.05;;;13.70;99.90;;;;;;5085959;28;20020;-77
2023/10/14 13:11:28;;;;;;;0.10;0.10;;;13.70;99.90;;;;;;5086269;28;20016;-75
2023/10/14 13:13:54;;;;;;;0.10;0.10;;;13.70;99.90;;;;;;5099366;28;20019;-77
2023/10/14 13:16:21;;;;;;;0.10;0.10;;;13.70;99.90;;;;;;5082374;28;20032;-77
2023/10/14 13:18:49;;;;;;;0.10;0.10;;;13.90;99.90;;;;;;5096252;28;20027;-80
2023/10/14 13:21:18;;;;;;;0.88;0.45;;;14.00;99.90;;;;;;5071369;28;20032;-77
2023/10/14 13:23:46;;;;;;;0.10;0.10;;;14.00;99.90;;;;;;5089859;28;20052;-79
2023/10/14 13:26:16;;;;;;;2.22;0.40;;;14.00;99.90;;;;;;5063470;28;20029;-80
2023/10/14 13:28:49;;;;;;;0.10;0.10;;;14.10;99.90;;;;;;5077748;28;20024;-79